Latest Weather Observations for Canterbury

IDN60801

Issued at 8:35 pm EDT Friday 31 October 2014 (issued every 30 minutes, with the page automatically refreshed every 10 minutes)

About weather observations | Map of weather stations | Latest weather observations for NSW | Other Formats
Station Details ID: 066194 Name: CANTERBURY RACECOURSE AWS Lat: -33.91 Lon: 151.11 Height: 3.0 m
Data from the previous 72 hours. | See also: Recent months at Canterbury
Date/Time
EDT
Temp
°C
App
Temp
°C
Dew
Point
Rel
Hum
%
Delta-T
°C
Wind Press
QNH
hPa
Press
MSL
hPa
Rain
since 9 am
mm
Dir
 
Spd
km/h
Gust
km/h
Spd
kts
Gust
kts
31/08:30pm 24.5 22.4 13.7 51 6.3 NE 17 28 9 15 - - 0.0
31/08:00pm 25.0 23.1 12.9 47 7.0 NE 15 24 8 13 - - 0.0
31/07:30pm 25.6 23.3 11.7 42 7.9 NE 15 24 8 13 - - 0.0
31/07:00pm 26.5 23.7 11.4 39 8.6 NNE 17 28 9 15 - - 0.0
31/06:30pm 26.7 24.1 12.0 40 8.5 NE 17 24 9 13 - - 0.0
31/06:00pm 27.2 23.6 11.7 38 8.9 NNE 22 35 12 19 - - 0.0
31/05:30pm 28.4 24.9 12.3 37 9.4 NE 22 39 12 21 - - 0.0
31/05:00pm 27.2 24.5 12.8 41 8.4 NE 19 37 10 20 - - 0.0
31/04:30pm 28.3 25.3 11.8 36 9.5 ENE 19 30 10 16 - - 0.0
31/04:00pm 29.0 25.6 11.1 33 10.2 NE 20 33 11 18 - - 0.0
31/03:30pm 29.4 25.6 11.0 32 10.5 NE 22 35 12 19 - - 0.0
31/03:00pm 30.0 26.2 11.0 31 10.9 ENE 22 35 12 19 - - 0.0
31/02:30pm 30.3 26.7 11.8 32 10.8 ENE 22 30 12 16 - - 0.0
31/02:00pm 31.0 28.0 11.9 31 11.2 ENE 19 32 10 17 - - 0.0
31/01:30pm 31.9 28.7 13.2 32 11.2 E 22 26 12 14 - - 0.0
31/01:00pm 31.6 29.6 13.8 34 10.8 NE 17 22 9 12 - - 0.0
31/12:30pm 31.8 29.9 13.1 32 11.2 ENE 15 20 8 11 - - 0.0
31/12:00pm 31.6 30.0 11.4 29 11.8 NNE 11 20 6 11 - - 0.0
31/11:30am 30.1 28.4 11.1 31 10.9 NE 11 15 6 8 - - 0.0
31/11:00am 28.3 26.0 10.5 33 10.1 N 13 19 7 10 - - 0.0
31/10:30am 26.4 25.5 11.3 39 8.6 WNW 7 13 4 7 - - 0.0
31/10:00am 24.6 23.7 10.8 42 7.7 WNW 6 13 3 7 - - 0.0
31/09:30am 23.3 22.5 11.7 48 6.5 NW 7 13 4 7 - - 0.0
31/09:00am 21.5 20.4 12.1 55 5.3 W 9 13 5 7 - - 0.0
31/08:30am 20.1 19.7 12.3 61 4.4 NW 6 9 3 5 - - 0.0
31/08:00am 18.8 18.2 11.6 63 4.0 WNW 6 7 3 4 - - 0.0
31/07:31am 17.3 16.5 11.1 67 3.3 NW 6 9 3 5 - - 0.0
31/07:30am 17.3 16.5 11.1 67 3.3 NW 6 9 3 5 - - 0.0
31/07:12am 16.2 16.1 12.0 76 2.3 NW 4 7 2 4 - - 0.0
31/07:00am 15.3 16.0 12.1 81 1.7 CALM 0 0 0 0 - - 0.0
31/06:30am 13.1 13.7 11.8 92 0.7 CALM 0 0 0 0 - - 0.0
31/06:00am 12.5 12.8 10.9 90 0.8 NNW 0 0 0 0 - - 0.0
31/05:30am 13.0 13.5 11.6 91 0.7 CALM 0 0 0 0 - - 0.0
31/05:00am 13.0 13.4 11.2 89 0.9 CALM 0 0 0 0 - - 0.0
31/04:30am 13.4 13.8 11.3 87 1.1 CALM 0 0 0 0 - - 0.0
31/04:00am 13.7 14.1 11.4 86 1.2 CALM 0 0 0 0 - - 0.0
31/03:30am 13.9 14.3 11.1 83 1.5 CALM 0 0 0 0 - - 0.0
31/03:00am 14.4 14.9 11.7 84 1.4 CALM 0 0 0 0 - - 0.0
31/02:30am 15.1 16.1 13.3 89 1.0 CALM 0 0 0 0 - - 0.0
31/02:00am 14.5 15.0 11.6 83 1.6 CALM 0 0 0 0 - - 0.0
31/01:30am 15.0 15.7 12.1 83 1.6 CALM 0 0 0 0 - - 0.0
31/01:00am 14.9 15.4 11.5 80 1.8 CALM 0 0 0 0 - - 0.0
31/12:30am 15.5 16.0 11.5 77 2.2 CALM 0 0 0 0 - - 0.0
31/12:00am 15.9 16.4 11.7 76 2.3 ENE 0 0 0 0 - - 0.0
 
Date/Time
EDT
Temp
°C
App
Temp
°C
Dew
Point
Rel
Hum
%
Delta-T
°C
Wind Press
QNH
hPa
Press
MSL
hPa
Rain
since 9 am
mm
Dir
 
Spd
km/h
Gust
km/h
Spd
kts
Gust
kts
30/11:30pm 16.1 16.2 10.2 68 3.1 CALM 0 0 0 0 - - 0.0
30/11:00pm 17.3 17.4 10.2 63 3.8 CALM 0 0 0 0 - - 0.0
30/10:30pm 18.2 18.3 10.1 59 4.3 CALM 0 0 0 0 - - 0.0
30/10:00pm 20.1 20.1 9.7 51 5.6 CALM 0 2 0 1 - - 0.0
30/09:30pm 21.2 19.6 7.8 42 6.9 ENE 6 11 3 6 - - 0.0
30/09:00pm 21.4 19.4 6.9 39 7.4 ENE 7 11 4 6 - - 0.0
30/08:30pm 21.4 19.6 8.0 42 7.0 E 7 11 4 6 - - 0.0
30/08:00pm 22.1 19.3 7.1 38 7.7 E 11 15 6 8 - - 0.0
30/07:30pm 22.8 21.4 9.6 43 7.1 E 7 13 4 7 - - 0.0
30/07:00pm 24.1 21.5 7.7 35 8.6 E 11 17 6 9 - - 0.0
30/06:30pm 25.1 21.1 8.1 34 9.1 NE 19 28 10 15 - - 0.0
30/06:00pm 26.2 22.7 8.7 33 9.5 NE 17 26 9 14 - - 0.0
30/05:30pm 27.8 24.8 9.1 31 10.3 NE 15 22 8 12 - - 0.0
30/05:00pm 30.9 28.4 6.7 22 13.0 W 9 19 5 10 - - 0.0
30/04:30pm 30.5 25.2 5.0 20 13.3 NW 22 28 12 15 - - 0.0
30/04:00pm 30.2 27.2 6.1 22 12.8 W 11 19 6 10 - - 0.0
30/03:30pm 30.2 26.6 4.8 20 13.2 W 13 24 7 13 - - 0.0
30/03:00pm 29.9 26.9 5.9 22 12.7 NW 11 17 6 9 - - 0.0
30/02:30pm 29.7 26.6 5.7 22 12.6 WSW 11 20 6 11 - - 0.0
30/02:00pm 29.2 25.9 6.6 24 12.0 W 13 22 7 12 - - 0.0
30/01:30pm 28.2 23.4 5.7 24 11.7 W 20 30 11 16 - - 0.0
30/01:00pm 28.0 24.6 7.8 28 10.9 NW 15 24 8 13 - - 0.0
30/12:30pm 27.1 24.1 6.0 26 11.0 NNW 11 20 6 11 - - 0.0
30/12:00pm 27.0 24.8 8.0 30 10.2 NNW 9 17 5 9 - - 0.0
30/11:30am 26.4 25.0 9.7 35 9.2 NW 7 19 4 10 - - 0.0
30/11:00am 24.9 23.8 11.8 44 7.4 NW 9 13 5 7 - - 0.0
30/10:30am 23.8 24.0 14.2 55 5.7 NNW 6 11 3 6 - - 0.0
30/10:00am 22.9 23.4 15.5 63 4.4 NW 7 13 4 7 - - 0.0
30/09:30am 21.4 21.4 15.3 68 3.6 NW 9 15 5 8 - - 0.0
30/09:00am 19.9 19.2 14.3 70 3.2 WNW 11 17 6 9 - - 0.0
30/08:30am 18.7 18.4 14.4 76 2.5 NW 9 13 5 7 - - 0.0
30/08:00am 17.4 17.1 14.3 82 1.8 NW 9 13 5 7 - - 0.0
30/07:30am 15.9 16.1 14.1 89 1.0 WNW 6 9 3 5 - - 0.0
30/07:00am 14.4 15.3 13.9 97 0.3 WNW 2 6 1 3 - - 0.0
30/06:30am 12.9 13.7 12.4 97 0.3 CALM 0 0 0 0 - - 0.0
30/06:00am 12.4 13.0 11.8 96 0.3 CALM 0 0 0 0 - - 0.0
30/05:30am 12.8 13.4 12.0 95 0.4 CALM 0 0 0 0 - - 0.0
30/05:00am 12.5 13.0 11.6 94 0.5 CALM 0 0 0 0 - - 0.0
30/04:30am 13.1 13.8 12.2 94 0.5 CALM 0 0 0 0 - - 0.0
30/04:00am 13.6 14.4 12.7 94 0.5 CALM 0 0 0 0 - - 0.0
30/03:30am 13.6 14.4 12.7 94 0.5 CALM 0 0 0 0 - - 0.0
30/03:00am 13.5 14.2 12.1 91 0.8 CALM 0 0 0 0 - - 0.0
30/02:30am 14.2 15.0 12.6 90 0.9 CALM 0 0 0 0 - - 0.0
30/02:00am 14.6 15.4 12.6 88 1.1 CALM 0 0 0 0 - - 0.0
30/01:30am 15.2 16.1 12.9 86 1.3 CALM 0 0 0 0 - - 0.0
30/01:00am 16.2 16.9 13.5 84 1.5 N 2 6 1 3 - - 0.0
30/12:30am 16.7 17.4 13.4 81 1.9 N 2 7 1 4 - - 0.0
30/12:00am 17.2 17.1 13.3 78 2.2 N 6 9 3 5 - - 0.0
 
Date/Time
EDT
Temp
°C
App
Temp
°C
Dew
Point
Rel
Hum
%
Delta-T
°C
Wind Press
QNH
hPa
Press
MSL
hPa
Rain
since 9 am
mm
Dir
 
Spd
km/h
Gust
km/h
Spd
kts
Gust
kts
29/11:30pm 17.8 17.3 13.7 77 2.3 N 9 15 5 8 - - 0.0
29/11:00pm 17.9 17.4 13.8 77 2.3 NNE 9 15 5 8 - - 0.0
29/10:30pm 18.2 17.0 14.1 77 2.3 NNE 13 19 7 10 - - 0.0
29/10:00pm 18.5 17.3 14.0 75 2.6 NE 13 19 7 10 - - 0.0
29/09:30pm 18.7 17.4 13.8 73 2.8 NE 13 20 7 11 - - 0.0
29/09:00pm 18.9 18.0 13.7 72 3.0 ENE 11 19 6 10 - - 0.0
29/08:30pm 18.8 17.4 13.4 71 3.1 ENE 13 22 7 12 - - 0.0
29/08:00pm 19.0 18.1 13.8 72 3.0 ENE 11 19 6 10 - - 0.0
29/07:30pm 19.1 17.0 13.7 71 3.1 ENE 17 28 9 15 - - 0.0
29/07:00pm 19.2 16.5 13.6 70 3.2 ENE 20 32 11 17 - - 0.0
29/06:30pm 19.4 16.9 13.6 69 3.3 E 19 26 10 14 - - 0.0
29/06:00pm 20.1 17.0 13.3 65 3.9 E 22 33 12 18 - - 0.0
29/05:30pm 20.1 17.0 13.3 65 3.9 E 22 30 12 16 - - 0.0
29/05:00pm 20.2 16.6 13.2 64 4.0 ENE 24 32 13 17 - - 0.0
29/04:30pm 21.6 18.9 13.5 60 4.7 ENE 20 32 11 17 - - 0.0
29/04:00pm 21.4 18.7 13.6 61 4.5 ENE 20 32 11 17 - - 0.0
29/03:30pm 22.1 19.8 14.2 61 4.6 ENE 19 26 10 14 - - 0.0
29/03:00pm 22.4 20.0 13.7 58 5.0 E 19 26 10 14 - - 0.0
29/02:30pm 22.6 19.5 13.4 56 5.3 E 22 32 12 17 - - 0.0
29/02:00pm 22.0 18.7 12.8 56 5.2 E 22 32 12 17 - - 0.0
29/01:30pm 22.8 20.2 13.3 55 5.5 E 19 28 10 15 - - 0.0
29/01:00pm 22.7 20.6 13.5 56 5.3 ESE 17 24 9 13 - - 0.0
29/12:30pm 22.4 18.2 11.2 49 6.2 SE 24 37 13 20 - - 0.0
29/12:00pm 22.1 18.6 8.9 43 7.0 SE 17 26 9 14 - - 0.0
29/11:30am 22.5 20.0 10.9 48 6.4 SE 15 20 8 11 - - 0.0
29/11:00am 22.4 19.3 8.9 42 7.2 SE 15 26 8 14 - - 0.0
29/10:30am 22.1 19.7 9.9 46 6.6 ESE 13 17 7 9 - - 0.0
29/10:00am 21.2 18.2 9.1 46 6.4 SE 15 24 8 13 - - 0.0
29/09:30am 21.3 19.2 8.2 43 6.8 SSW 9 19 5 10 - - 0.0
29/09:00am 20.9 18.7 7.9 43 6.7 SSW 9 17 5 9 - - 0.0
29/08:30am 19.7 16.6 7.1 44 6.4 WSW 13 20 7 11 - - 0.0
29/08:00am 18.6 16.3 7.4 48 5.7 WSW 9 11 5 6 - - 0.0
29/07:30am 17.9 16.8 6.7 48 5.6 SE 2 7 1 4 - - 0.0
29/07:00am 16.7 15.3 8.9 60 4.0 E 6 9 3 5 - - 0.0
29/06:30am 15.2 13.3 6.7 57 4.1 SW 6 7 3 4 - - 0.0
29/06:00am 14.8 12.8 6.1 56 4.2 W 6 7 3 4 - - 0.0
29/05:30am 14.3 12.0 7.4 63 3.4 WSW 9 15 5 8 - - 0.0
29/05:00am 12.8 11.7 6.8 67 2.9 W 2 6 1 3 - - 0.0
29/04:30am 13.4 12.1 6.0 61 3.5 WNW 2 6 1 3 - - 0.0
29/04:00am 13.4 12.3 6.7 64 3.2 W 2 7 1 4 - - 0.0
29/03:30am 14.2 12.2 7.0 62 3.5 WNW 7 9 4 5 - - 0.0
29/03:00am 13.5 12.3 6.4 62 3.4 NW 2 6 1 3 - - 0.0
29/02:30am 14.0 13.1 6.1 59 3.8 CALM 0 0 0 0 - - 0.0
29/02:00am 15.4 14.3 5.3 51 4.8 CALM 0 0 0 0 - - 0.0
29/01:30am 18.0 15.8 5.2 43 6.2 W 6 11 3 6 - - 0.0
29/01:00am 19.0 16.1 4.7 39 6.9 SW 9 15 5 8 - - 0.0
29/12:30am 19.2 15.5 4.2 37 7.2 WSW 13 19 7 10 - - 0.0
29/12:00am 19.4 16.8 3.2 34 7.6 SW 6 13 3 7 - - 0.0
 
Date/Time
EDT
Temp
°C
App
Temp
°C
Dew
Point
Rel
Hum
%
Delta-T
°C
Wind Press
QNH
hPa
Press
MSL
hPa
Rain
since 9 am
mm
Dir
 
Spd
km/h
Gust
km/h
Spd
kts
Gust
kts
28/11:30pm 19.5 15.9 3.2 34 7.6 W 11 13 6 7 - - 0.0
28/11:00pm 20.1 16.6 3.3 33 7.9 WSW 11 15 6 8 - - 0.0
28/10:30pm 20.1 16.9 3.3 33 7.9 WSW 9 13 5 7 - - 0.0
28/10:00pm 21.1 17.5 2.9 30 8.6 W 11 15 6 8 - - 0.0
28/09:30pm 21.0 17.8 3.2 31 8.4 WSW 9 11 5 6 - - 0.0
28/09:00pm 21.5 18.2 2.7 29 8.9 W 9 13 5 7 - - 0.0

Other Formats:

Comma delimited format used in spreadsheet applications
http://www.bom.gov.au/fwo/IDN60801/IDN60801.94766.axf

JavaScript Object Notation format (JSON) in row-major order
http://www.bom.gov.au/fwo/IDN60801/IDN60801.94766.json